Terminal Aerodrome Forecast
Issued by NWS

Home | Current Version | Previous Version | Text Only | Print | Product List | Glossary On
Versions: 1 2 3 4 5 6 7 8 9 10 11 12 13 14 15 16
000
FTUS41 KLWX 302328
TAFMTN
TAF
KMTN 302328Z 3100/3124 18006KT P6SM FEW040 SCT200
     FM310200 25006KT P6SM FEW040 SCT200
     FM310300 31005KT P6SM FEW040 SCT250
      AMD NOT SKED 3102/3112=

USA.gov is the U.S. government's official web portal to all federal, state and local government web resources and services.